If you wish to contribute or participate in the discussions about articles you are invited to join SKYbrary as a registered user

 Actions

King Cove Airport

From SKYbrary Wiki

PAVC
Airport
ICAO: PAVC – IATA: KVC
Summary
Name King Cove Airport
Region North America
Territory Alaska US.gif
Location , Alaska
Serving King Cove
Elevation 47.244 m
155 ft
155 ft47.244 m
Type small airport
Coordinates 55° 6' 58.68" N, 162° 15' 57.60" W
Runways
Designator Length Width Surface ROPS
7/25 1067 m3,500.656 ft
30 m98.425 ft
GRVL-G /


METAR
Observation PAVC 210856Z AUTO 22011KT 10SM BKN022 BKN034 06/03 A2947 RMK AO2 SLP985 60000 T00610028 400830000 53014
Station KING COVE
Date/Time 21 October 2019 08:56:00
Wind direction 220°
Wind speed 11 kts
Lowest cloud amount broken clouds
Temperature 6.1°C
Dew point 2.8°C
Humidity 79%
QNH hPa
Weather condition n/a